Time;durP1;ratioP1;P1;durP2;ratioP2;P2;SDS_P1;SDS_P2;PMS_P1;PMS_P2;Temp;Humidity;BMP_temperature;BMP_pressure;BME280_temperature;BME280_humidity;BME280_pressure;Samples;Min_cycle;Max_cycle;Signal;HPM_P1;HPM_P2
2022/04/10 00:02:07;;;;;;;2.33;2.00;;;;;;;3.55;100.00;100734.63;5012406;28;20321;-54
2022/04/10 00:04:33;;;;;;;3.37;2.00;;;;;;;3.56;100.00;100731.19;5009163;28;20235;-53
2022/04/10 00:07:01;;;;;;;3.07;1.40;;;;;;;3.49;100.00;100728.41;5023299;28;20310;-55
2022/04/10 00:09:27;;;;;;;3.23;2.10;;;;;;;3.40;100.00;100733.31;5018397;28;20239;-55
2022/04/10 00:11:53;;;;;;;2.10;1.87;;;;;;;3.38;100.00;100733.28;5024332;28;20235;-55
2022/04/10 00:14:20;;;;;;;5.23;2.03;;;;;;;3.39;100.00;100737.63;5023995;28;20236;-55
2022/04/10 00:16:46;;;;;;;5.77;2.43;;;;;;;3.43;100.00;100738.59;5017101;28;20269;-56
2022/04/10 00:19:12;;;;;;;2.60;2.00;;;;;;;3.30;100.00;100734.75;5021682;28;20658;-55
2022/04/10 00:21:39;;;;;;;3.30;2.10;;;;;;;3.40;100.00;100735.91;5026415;28;20303;-55
2022/04/10 00:24:07;;;;;;;2.50;1.87;;;;;;;3.28;100.00;100749.44;5010546;28;20241;-55
2022/04/10 00:26:34;;;;;;;4.47;2.00;;;;;;;3.30;100.00;100752.94;5010375;28;20540;-55
2022/04/10 00:29:01;;;;;;;2.33;2.07;;;;;;;3.33;100.00;100753.94;5010061;28;20241;-55
2022/04/10 00:31:28;;;;;;;3.87;1.67;;;;;;;3.28;100.00;100755.50;5026181;28;20302;-56
2022/04/10 00:33:54;;;;;;;3.53;1.80;;;;;;;3.26;100.00;100751.97;5004315;28;20668;-54
2022/04/10 00:36:21;;;;;;;4.87;2.27;;;;;;;3.27;100.00;100753.75;5019905;28;20240;-56
2022/04/10 00:38:47;;;;;;;4.30;2.23;;;;;;;3.33;100.00;100745.22;5005994;28;25351;-54
2022/04/10 00:41:15;;;;;;;2.40;2.00;;;;;;;3.38;100.00;100746.25;4997271;28;20249;-56
2022/04/10 00:44:06;;;;;;;4.80;2.13;;;;;;;3.29;100.00;100757.25;5011050;28;20233;-55
2022/04/10 00:46:33;;;;;;;6.73;2.27;;;;;;;3.32;100.00;100754.75;5008096;28;20244;-54
2022/04/10 00:48:59;;;;;;;4.37;2.77;;;;;;;3.39;100.00;100749.72;5015565;28;20244;-56
2022/04/10 00:51:41;;;;;;;4.17;3.10;;;;;;;3.32;100.00;100751.28;5025830;28;20232;-56
2022/04/10 00:54:09;;;;;;;5.57;2.97;;;;;;;3.25;100.00;100750.22;5017495;28;20316;-55
2022/04/10 00:56:37;;;;;;;3.80;2.60;;;;;;;3.19;100.00;100755.22;5025094;28;20646;-55
2022/04/10 00:59:04;;;;;;;3.43;2.83;;;;;;;3.17;100.00;100743.94;5017906;28;20253;-55
2022/04/10 01:01:31;;;;;;;5.10;3.23;;;;;;;3.10;100.00;100745.47;5005180;28;20244;-55
2022/04/10 01:03:57;;;;;;;4.27;2.53;;;;;;;3.13;100.00;100749.88;5010562;28;20240;-55
2022/04/10 01:06:24;;;;;;;3.60;2.83;;;;;;;3.01;100.00;100749.50;5001547;28;20286;-57
2022/04/10 01:08:51;;;;;;;3.20;2.90;;;;;;;3.11;100.00;100746.34;5003391;28;20266;-55
2022/04/10 01:11:17;;;;;;;3.30;2.93;;;;;;;3.08;100.00;100749.72;5005402;28;20240;-55
2022/04/10 01:13:45;;;;;;;5.23;2.93;;;;;;;3.16;100.00;100744.78;5000559;28;20303;-55
2022/04/10 01:16:12;;;;;;;5.27;2.50;;;;;;;3.13;100.00;100749.88;5004886;28;20298;-56
2022/04/10 01:18:40;;;;;;;3.47;2.63;;;;;;;3.08;100.00;100751.44;5002929;28;20256;-55
2022/04/10 01:21:07;;;;;;;8.83;2.90;;;;;;;3.00;100.00;100747.75;5003580;28;20694;-56
2022/04/10 01:23:35;;;;;;;5.07;2.67;;;;;;;3.08;100.00;100752.31;5004078;28;20246;-55
2022/04/10 01:26:01;;;;;;;3.17;2.20;;;;;;;3.02;100.00;100751.25;4988473;28;20233;-57
2022/04/10 01:28:28;;;;;;;4.20;2.73;;;;;;;3.14;100.00;100751.63;5004649;28;20244;-56
2022/04/10 01:30:54;;;;;;;3.07;2.40;;;;;;;3.10;100.00;100754.97;5005139;28;20343;-56
2022/04/10 01:33:20;;;;;;;2.93;2.50;;;;;;;3.05;100.00;100754.84;5024574;28;20266;-55
2022/04/10 01:35:47;;;;;;;4.57;3.37;;;;;;;3.12;100.00;100758.47;5012829;28;20236;-56
2022/04/10 01:38:14;;;;;;;4.73;2.70;;;;;;;3.02;100.00;100751.25;5022724;28;20246;-55
2022/04/10 01:40:41;;;;;;;5.07;3.40;;;;;;;3.09;100.00;100753.22;5021861;28;20246;-55
2022/04/10 01:43:08;;;;;;;6.47;2.40;;;;;;;3.07;100.00;100757.47;5024532;28;20237;-55
2022/04/10 01:45:34;;;;;;;4.37;2.50;;;;;;;3.02;100.00;100751.25;5008785;28;20244;-55
2022/04/10 01:48:01;;;;;;;7.37;4.27;;;;;;;2.86;100.00;100761.16;5004914;28;20232;-56
2022/04/10 01:50:27;;;;;;;4.90;2.27;;;;;;;2.87;100.00;100767.22;5020496;28;20346;-55
2022/04/10 01:52:53;;;;;;;4.40;2.50;;;;;;;2.78;100.00;100757.47;5024277;28;20285;-56
2022/04/10 01:55:20;;;;;;;2.73;2.53;;;;;;;2.84;100.00;100757.66;5011570;28;20317;-55
2022/04/10 01:57:47;;;;;;;2.33;2.13;;;;;;;2.84;100.00;100756.75;5015408;28;20293;-54
2022/04/10 02:00:14;;;;;;;4.57;2.90;;;;;;;2.68;100.00;100765.78;5012194;28;20590;-56
2022/04/10 02:02:40;;;;;;;2.40;2.17;;;;;;;2.77;100.00;100762.59;5018530;28;20235;-56
2022/04/10 02:05:07;;;;;;;4.57;2.83;;;;;;;2.79;100.00;100763.53;5017067;28;20255;-56
2022/04/10 02:07:34;;;;;;;3.53;2.37;;;;;;;2.66;100.00;100761.38;5023637;28;20239;-55
2022/04/10 02:10:00;;;;;;;3.07;2.57;;;;;;;2.67;100.00;100757.94;5012112;28;20270;-55
2022/04/10 02:12:26;;;;;;;6.07;3.13;;;;;;;2.71;100.00;100755.53;5023488;28;20313;-55
2022/04/10 02:14:54;;;;;;;4.53;2.70;;;;;;;2.76;100.00;100758.25;5016963;28;20294;-55
2022/04/10 02:17:20;;;;;;;6.90;3.23;;;;;;;2.76;100.00;100756.53;5004896;28;20236;-56
2022/04/10 02:19:47;;;;;;;5.90;2.70;;;;;;;2.78;100.00;100762.66;5017335;28;20470;-56
2022/04/10 02:22:13;;;;;;;8.37;3.10;;;;;;;2.68;100.00;100760.59;5010826;28;20232;-56
2022/04/10 02:24:39;;;;;;;5.63;2.87;;;;;;;2.53;100.00;100752.38;5029680;28;20416;-54
2022/04/10 02:27:06;;;;;;;3.80;2.90;;;;;;;2.70;100.00;100758.94;5028182;28;20302;-55
2022/04/10 02:29:32;;;;;;;5.70;2.90;;;;;;;2.71;100.00;100765.91;5024191;28;20246;-55
2022/04/10 02:32:00;;;;;;;6.47;2.90;;;;;;;2.73;100.00;100761.63;5023752;28;20236;-58
2022/04/10 02:34:26;;;;;;;7.10;3.53;;;;;;;2.71;100.00;100770.19;5026846;28;20231;-55
2022/04/10 02:36:52;;;;;;;3.23;2.93;;;;;;;2.66;100.00;100767.44;5017747;28;20293;-57
2022/04/10 02:39:19;;;;;;;8.40;3.80;;;;;;;2.76;100.00;100759.13;5026117;28;20318;-56
2022/04/10 02:41:45;;;;;;;4.33;2.80;;;;;;;2.64;100.00;100763.94;5008695;28;20240;-56
2022/04/10 02:44:11;;;;;;;3.90;2.77;;;;;;;2.71;100.00;100760.72;5017930;28;20262;-55
2022/04/10 02:46:38;;;;;;;6.63;3.13;;;;;;;2.69;100.00;100770.13;5009451;28;20290;-55
2022/04/10 02:49:06;;;;;;;5.63;2.70;;;;;;;2.68;100.00;100764.91;5019697;28;20247;-56
2022/04/10 02:51:32;;;;;;;3.60;3.13;;;;;;;2.62;100.00;100771.66;5010854;28;20240;-57
2022/04/10 02:53:58;;;;;;;4.10;3.17;;;;;;;2.79;100.00;100773.91;5027794;28;20235;-59
2022/04/10 02:56:25;;;;;;;6.17;3.27;;;;;;;2.56;100.00;100770.56;5023426;28;20873;-55
2022/04/10 02:58:51;;;;;;;9.57;3.27;;;;;;;2.80;100.00;100779.13;5027360;28;20613;-55
2022/04/10 03:01:18;;;;;;;4.90;3.07;;;;;;;2.90;100.00;100782.00;5022409;28;20285;-55
2022/04/10 03:03:44;;;;;;;3.67;3.33;;;;;;;2.93;100.00;100777.78;5027289;28;20814;-55
2022/04/10 03:06:11;;;;;;;7.13;3.60;;;;;;;2.86;100.00;100778.44;5023809;28;20321;-55
2022/04/10 03:08:38;;;;;;;6.63;3.77;;;;;;;2.63;100.00;100772.53;5023522;28;20553;-56
2022/04/10 03:11:04;;;;;;;6.57;2.50;;;;;;;2.63;100.00;100777.72;5018618;28;20243;-55
2022/04/10 03:13:31;;;;;;;5.87;3.07;;;;;;;2.63;100.00;100780.31;5027292;28;20232;-55
2022/04/10 03:15:57;;;;;;;5.30;3.20;;;;;;;2.68;100.00;100778.75;5017568;28;20278;-55
2022/04/10 03:18:24;;;;;;;6.80;3.70;;;;;;;2.81;100.00;100788.69;5024748;28;20243;-54
2022/04/10 03:20:51;;;;;;;5.60;3.00;;;;;;;2.83;100.00;100784.41;5023128;28;20247;-55
2022/04/10 03:23:18;;;;;;;5.10;3.30;;;;;;;2.90;100.00;100784.59;5027228;28;20830;-55
2022/04/10 03:25:45;;;;;;;6.53;3.20;;;;;;;2.87;100.00;100786.25;5019808;28;20271;-56
2022/04/10 03:28:11;;;;;;;6.20;4.47;;;;;;;2.82;100.00;100794.75;5025731;28;20265;-55
2022/04/10 03:30:37;;;;;;;5.37;2.73;;;;;;;2.75;100.00;100788.47;5019297;28;20322;-55
2022/04/10 03:33:04;;;;;;;6.67;3.83;;;;;;;2.86;100.00;100800.06;5006437;28;20240;-55
2022/04/10 03:35:30;;;;;;;7.60;3.23;;;;;;;2.71;100.00;100794.41;5014841;28;20656;-56
2022/04/10 03:37:56;;;;;;;4.10;2.83;;;;;;;2.81;100.00;100801.66;5024780;28;20297;-56
2022/04/10 03:40:24;;;;;;;8.83;2.77;;;;;;;2.84;100.00;100799.16;5022468;28;20264;-55
2022/04/10 03:42:50;;;;;;;7.50;3.50;;;;;;;2.91;100.00;100809.69;5015635;28;20974;-56
2022/04/10 03:45:17;;;;;;;3.20;2.83;;;;;;;2.90;100.00;100819.19;5025736;28;20740;-56
2022/04/10 03:47:43;;;;;;;6.60;3.43;;;;;;;2.69;100.00;100819.38;5026606;28;20243;-56
2022/04/10 03:50:09;;;;;;;7.47;3.83;;;;;;;2.65;100.00;100827.91;5024829;28;20310;-56
2022/04/10 03:52:36;;;;;;;7.67;2.93;;;;;;;2.75;100.00;100819.59;5025637;28;20239;-55
2022/04/10 03:55:03;;;;;;;8.53;3.67;;;;;;;2.86;100.00;100817.34;5025992;28;20236;-56
2022/04/10 03:57:30;;;;;;;4.60;3.13;;;;;;;2.78;100.00;100818.81;5008605;28;20746;-57
2022/04/10 03:59:57;;;;;;;9.10;2.80;;;;;;;2.67;100.00;100831.44;5024629;28;20753;-55
2022/04/10 04:02:23;;;;;;;5.00;2.50;;;;;;;2.81;100.00;100813.72;5019855;28;20456;-55
2022/04/10 04:04:51;;;;;;;5.43;3.03;;;;;;;2.81;100.00;100827.56;5024023;28;20660;-57
2022/04/10 04:07:17;;;;;;;3.90;2.87;;;;;;;2.82;100.00;100837.09;5009141;28;20246;-56
2022/04/10 04:09:44;;;;;;;6.27;3.07;;;;;;;2.72;100.00;100835.03;5021332;28;20243;-55
2022/04/10 04:12:11;;;;;;;11.00;3.50;;;;;;;2.61;100.00;100839.88;5013325;28;20285;-55
2022/04/10 04:14:38;;;;;;;4.53;3.00;;;;;;;2.74;100.00;100838.56;5026493;28;20242;-55
2022/04/10 04:17:05;;;;;;;6.63;3.30;;;;;;;2.87;100.00;100843.31;5021823;28;20982;-55
2022/04/10 04:19:31;;;;;;;8.90;2.73;;;;;;;2.84;100.00;100842.31;5024550;28;20238;-56
2022/04/10 04:21:58;;;;;;;5.00;3.13;;;;;;;2.91;100.00;100854.66;5013125;28;20240;-55
2022/04/10 04:24:24;;;;;;;5.77;3.63;;;;;;;2.84;100.00;100851.00;4987619;28;20233;-55
2022/04/10 04:26:51;;;;;;;9.20;3.90;;;;;;;2.94;100.00;100861.66;5004527;28;20295;-54
2022/04/10 04:29:17;;;;;;;4.37;3.33;;;;;;;2.95;100.00;100860.81;5005094;28;20244;-55
2022/04/10 04:31:45;;;;;;;9.87;3.47;;;;;;;2.88;100.00;100862.34;5014444;28;20294;-56
2022/04/10 04:34:13;;;;;;;4.43;3.03;;;;;;;2.86;100.00;100874.38;5015838;28;20771;-54
2022/04/10 04:36:39;;;;;;;6.73;3.30;;;;;;;2.81;100.00;100858.69;5013952;28;20243;-54
2022/04/10 04:39:06;;;;;;;9.57;4.40;;;;;;;2.83;100.00;100866.50;5024631;28;20233;-55
2022/04/10 04:41:32;;;;;;;6.27;4.13;;;;;;;2.81;100.00;100874.25;5018164;28;20286;-55
2022/04/10 04:43:58;;;;;;;6.17;3.30;;;;;;;2.82;100.00;100862.16;5026024;28;20713;-55
2022/04/10 04:46:25;;;;;;;5.63;3.87;;;;;;;2.95;100.00;100863.41;5018991;28;20262;-55
2022/04/10 04:48:52;;;;;;;7.97;3.47;;;;;;;2.95;100.00;100864.31;5004588;28;20256;-55
2022/04/10 04:51:19;;;;;;;10.60;3.57;;;;;;;3.06;100.00;100857.75;5015312;28;20287;-55
2022/04/10 04:53:45;;;;;;;7.00;3.63;;;;;;;3.00;100.00;100862.72;5007503;28;20239;-55
2022/04/10 04:56:11;;;;;;;5.33;2.80;;;;;;;2.92;100.00;100866.81;5023745;28;20239;-54
2022/04/10 04:58:38;;;;;;;6.60;3.43;;;;;;;2.92;100.00;100874.59;5014195;28;20270;-55
2022/04/10 05:01:04;;;;;;;6.90;4.00;;;;;;;2.93;100.00;100875.47;5017875;28;20302;-57
2022/04/10 05:03:30;;;;;;;4.57;3.13;;;;;;;2.88;100.00;100877.91;4997858;28;20777;-56
2022/04/10 05:05:58;;;;;;;5.57;2.47;;;;;;;2.84;100.00;100876.03;5005120;28;20271;-55
2022/04/10 05:08:24;;;;;;;5.53;2.63;;;;;;;2.81;100.00;100884.63;5003679;28;20636;-55
2022/04/10 05:10:51;;;;;;;4.97;3.17;;;;;;;2.83;100.00;100895.91;5004696;28;20764;-55
2022/04/10 05:13:17;;;;;;;8.80;3.50;;;;;;;2.86;100.00;100888.22;4985989;28;20248;-56
2022/04/10 05:15:43;;;;;;;5.17;2.67;;;;;;;2.97;100.00;100892.88;4998657;28;20738;-55
2022/04/10 05:18:10;;;;;;;11.33;3.03;;;;;;;2.84;100.00;100902.88;4987209;28;20267;-56
2022/04/10 05:20:37;;;;;;;8.23;3.63;;;;;;;2.80;100.00;100915.66;5005414;28;20260;-55
2022/04/10 05:23:04;;;;;;;7.03;3.40;;;;;;;2.91;100.00;100909.09;5017559;28;20298;-56
2022/04/10 05:25:31;;;;;;;7.73;3.03;;;;;;;3.06;100.00;100916.53;5024478;28;20777;-56
2022/04/10 05:27:57;;;;;;;5.97;2.90;;;;;;;3.03;100.00;100926.78;5021317;28;20227;-55
2022/04/10 05:30:23;;;;;;;8.50;3.47;;;;;;;3.09;100.00;100929.59;5024035;28;20286;-56
2022/04/10 05:32:50;;;;;;;6.63;2.47;;;;;;;3.18;100.00;100935.06;5011202;28;20258;-55
2022/04/10 05:35:16;;;;;;;6.43;2.67;;;;;;;3.19;100.00;100934.22;5007639;28;20333;-55
2022/04/10 05:37:42;;;;;;;2.70;2.50;;;;;;;3.18;100.00;100935.06;5022691;28;20655;-56
2022/04/10 05:40:11;;;;;;;11.90;3.20;;;;;;;3.13;100.00;100947.03;5023535;28;20227;-56
2022/04/10 05:42:39;;;;;;;6.57;3.17;;;;;;;3.16;100.00;100939.34;5013411;28;20252;-56
2022/04/10 05:45:06;;;;;;;9.13;3.03;;;;;;;3.22;100.00;100944.69;5015970;28;20327;-56
2022/04/10 05:47:32;;;;;;;7.63;3.50;;;;;;;3.45;100.00;100939.38;5013973;28;20726;-56
2022/04/10 05:49:59;;;;;;;11.13;3.93;;;;;;;3.22;100.00;100944.69;5018828;28;20321;-60
2022/04/10 05:52:25;;;;;;;4.37;2.97;;;;;;;3.02;100.00;100948.34;5017289;28;20252;-56
2022/04/10 05:54:51;;;;;;;6.57;3.17;;;;;;;3.20;100.00;100951.56;5013595;28;20293;-55
2022/04/10 05:57:19;;;;;;;3.63;2.47;;;;;;;3.29;100.00;100949.25;5020823;28;20231;-55
2022/04/10 05:59:46;;;;;;;12.37;3.43;;;;;;;3.25;100.00;100952.59;5023459;28;20857;-55
2022/04/10 06:02:12;;;;;;;6.40;3.07;;;;;;;3.41;100.00;100953.09;5010079;28;20244;-53
2022/04/10 06:04:38;;;;;;;6.37;2.83;;;;;;;3.48;99.85;100961.13;5017177;28;20244;-55
2022/04/10 06:07:05;;;;;;;6.87;3.13;;;;;;;3.40;99.41;100956.50;5023245;28;20244;-55
2022/04/10 06:09:31;;;;;;;8.50;3.20;;;;;;;3.51;100.00;100962.91;5022836;28;20271;-57
2022/04/10 06:11:58;;;;;;;6.70;3.30;;;;;;;3.65;100.00;100964.25;5021381;28;20785;-56
2022/04/10 06:14:26;;;;;;;7.67;3.20;;;;;;;3.62;100.00;100964.13;5014125;28;20235;-56
2022/04/10 06:16:52;;;;;;;7.00;3.57;;;;;;;3.46;99.12;100957.56;5022699;28;20307;-55
2022/04/10 06:19:19;;;;;;;8.90;3.10;;;;;;;3.63;99.68;100975.41;5016618;28;20243;-56
2022/04/10 06:21:46;;;;;;;10.37;3.23;;;;;;;3.66;98.75;100960.81;5023193;28;20232;-55
2022/04/10 06:24:12;;;;;;;4.37;3.13;;;;;;;3.71;99.45;100969.59;5023723;28;20228;-56
2022/04/10 06:26:40;;;;;;;12.60;3.63;;;;;;;3.78;98.37;100975.84;5023785;28;20248;-56
2022/04/10 06:29:07;;;;;;;13.80;3.03;;;;;;;3.74;97.08;100969.69;5013988;28;20235;-55
2022/04/10 06:31:35;;;;;;;7.37;2.60;;;;;;;3.87;97.57;100967.47;5023618;28;20244;-57
2022/04/10 06:34:02;;;;;;;7.43;2.97;;;;;;;3.85;97.03;100972.59;5007153;28;20254;-57
2022/04/10 06:36:28;;;;;;;7.80;2.60;;;;;;;3.97;96.38;100970.41;5024122;28;20263;-56
2022/04/10 06:38:54;;;;;;;4.47;2.93;;;;;;;3.98;95.75;100973.88;5029497;28;20252;-54
2022/04/10 06:41:21;;;;;;;6.63;3.30;;;;;;;4.07;96.17;100976.72;5023847;28;20232;-55
2022/04/10 06:43:47;;;;;;;7.23;3.03;;;;;;;4.07;96.47;100981.91;5008798;28;20240;-56
2022/04/10 06:46:14;;;;;;;6.73;3.33;;;;;;;4.24;95.97;100985.88;5014993;28;20232;-55
2022/04/10 06:48:41;;;;;;;3.73;2.67;;;;;;;4.25;94.51;100985.06;5015789;28;20247;-56
2022/04/10 06:51:08;;;;;;;4.53;3.07;;;;;;;4.20;94.88;100989.22;5021285;28;20260;-56
2022/04/10 06:53:34;;;;;;;7.70;3.83;;;;;;;4.36;94.97;100992.28;5020978;28;20240;-61
2022/04/10 06:56:00;;;;;;;4.17;2.83;;;;;;;4.28;93.13;100982.56;5023452;28;20310;-55
2022/04/10 06:58:27;;;;;;;4.50;3.03;;;;;;;4.33;93.44;100987.00;5012121;28;20287;-55
2022/04/10 07:00:53;;;;;;;5.47;2.83;;;;;;;4.43;92.62;100983.81;5020075;28;20237;-55
2022/04/10 07:03:20;;;;;;;8.07;3.37;;;;;;;4.46;91.57;100999.50;5013657;28;20517;-56
2022/04/10 07:05:48;;;;;;;8.63;3.83;;;;;;;4.45;91.15;100997.72;5027175;28;20291;-54
2022/04/10 07:08:15;;;;;;;6.27;2.80;;;;;;;4.46;91.02;101000.38;5025652;28;20240;-54
2022/04/10 07:10:41;;;;;;;7.73;2.87;;;;;;;4.21;92.31;101004.00;5021342;28;20236;-54
2022/04/10 07:13:08;;;;;;;8.57;3.10;;;;;;;4.29;93.16;101006.81;5021963;28;20228;-54
2022/04/10 07:15:34;;;;;;;6.33;2.77;;;;;;;4.35;91.17;101019.09;5026959;28;20674;-55
2022/04/10 07:18:00;;;;;;;8.47;3.03;;;;;;;4.40;91.09;101014.94;5026325;28;20255;-55
2022/04/10 07:20:28;;;;;;;7.37;2.73;;;;;;;4.46;91.36;101016.00;5026210;28;20241;-55
2022/04/10 07:25:39;;;;;;;3.57;2.70;;;;;;;4.47;90.58;101011.66;5021668;28;20249;-54
2022/04/10 07:28:06;;;;;;;8.23;3.33;;;;;;;4.63;90.12;101019.03;5025929;28;20236;-54
2022/04/10 07:30:32;;;;;;;4.67;2.30;;;;;;;4.45;90.59;101018.53;5026143;28;20252;-55
2022/04/10 07:32:58;;;;;;;5.63;3.20;;;;;;;4.60;91.08;101029.38;5026838;28;20236;-54
2022/04/10 07:35:25;;;;;;;4.73;2.30;;;;;;;4.59;90.29;101026.72;5021537;28;20240;-55
2022/04/10 07:37:52;;;;;;;5.47;2.73;;;;;;;4.59;89.54;101025.00;5022957;28;20241;-55
2022/04/10 07:40:20;;;;;;;7.43;3.73;;;;;;;4.50;90.33;101035.16;5005176;28;20475;-55
2022/04/10 07:42:46;;;;;;;10.03;3.30;;;;;;;4.57;90.46;101026.69;5019592;28;20225;-56
2022/04/10 07:47:25;;;;;;;8.07;2.83;;;;;;;4.65;90.49;101032.97;5023957;28;20299;-54
2022/04/10 07:48:00;;;;;;;6.17;3.53;;;;;;;4.72;90.08;101040.09;5025344;28;20231;-56
2022/04/10 07:50:26;;;;;;;6.20;2.73;;;;;;;4.79;89.71;101043.75;5026310;28;20714;-55
2022/04/10 07:52:53;;;;;;;6.27;2.30;;;;;;;4.72;89.79;101040.09;5025872;28;20238;-54
2022/04/10 07:55:21;;;;;;;7.37;2.50;;;;;;;4.63;90.85;101055.44;5022902;28;20251;-54
2022/04/10 07:57:48;;;;;;;8.50;3.10;;;;;;;4.43;91.11;101048.81;5026511;28;20324;-55
2022/04/10 08:00:15;;;;;;;8.20;2.70;;;;;;;4.47;92.70;101058.47;5030892;28;20236;-55
2022/04/10 08:02:44;;;;;;;7.30;3.63;;;;;;;4.34;92.67;101052.00;5033594;28;20236;-54
2022/04/10 08:05:11;;;;;;;10.43;3.13;;;;;;;4.30;93.45;101056.25;5030119;28;20229;-55
2022/04/10 08:07:37;;;;;;;5.73;2.77;;;;;;;4.46;93.22;101065.38;5048449;28;20223;-54
2022/04/10 08:10:04;;;;;;;5.57;2.83;;;;;;;4.45;91.21;101073.13;5031605;28;20239;-55
2022/04/10 08:12:32;;;;;;;10.67;3.53;;;;;;;4.73;90.31;101062.66;5034669;28;20319;-54
2022/04/10 08:14:58;;;;;;;7.20;3.50;;;;;;;4.82;88.95;101066.38;5026597;28;20237;-55
2022/04/10 08:17:24;;;;;;;7.80;2.93;;;;;;;4.88;88.27;101071.72;5026877;28;20281;-55
2022/04/10 08:19:51;;;;;;;7.03;3.43;;;;;;;4.92;88.72;101071.00;5030844;28;20253;-56
2022/04/10 08:22:23;;;;;;;9.63;3.90;;;;;;;5.04;88.11;101073.91;5049607;28;20236;-55
2022/04/10 08:24:50;;;;;;;6.40;3.50;;;;;;;5.00;87.00;101072.06;5031986;28;20263;-55
2022/04/10 08:27:16;;;;;;;7.77;3.30;;;;;;;5.24;85.66;101082.25;5035034;28;20726;-54
2022/04/10 08:29:44;;;;;;;7.97;3.20;;;;;;;5.37;84.50;101073.03;5022570;28;20646;-54
2022/04/10 08:32:10;;;;;;;11.43;2.63;;;;;;;5.39;83.47;101076.56;5028871;28;20239;-55
2022/04/10 08:34:37;;;;;;;11.27;3.20;;;;;;;5.54;82.53;101079.53;5029164;28;20229;-56
2022/04/10 08:37:05;;;;;;;10.13;3.43;;;;;;;5.65;82.61;101085.91;5032996;28;20623;-55
2022/04/10 08:39:31;;;;;;;7.63;3.10;;;;;;;5.75;81.80;101079.19;5029278;28;20236;-55
2022/04/10 08:42:02;;;;;;;8.33;3.13;;;;;;;6.01;81.33;101079.84;5031309;28;20286;-55
2022/04/10 08:44:28;;;;;;;6.47;2.93;;;;;;;6.12;80.99;101086.19;5021462;28;20225;-55
2022/04/10 08:46:56;;;;;;;11.73;2.73;;;;;;;5.87;78.92;101089.03;5019788;28;20279;-54
2022/04/10 08:49:25;;;;;;;9.33;4.13;;;;;;;5.70;79.16;101086.91;5019168;28;20229;-55
2022/04/10 08:51:53;;;;;;;6.33;3.20;;;;;;;5.52;81.03;101091.66;5030404;28;20252;-54
2022/04/10 08:54:20;;;;;;;11.60;3.40;;;;;;;5.35;84.85;101091.22;5020777;28;20245;-54
2022/04/10 08:56:46;;;;;;;6.23;2.90;;;;;;;5.24;87.44;101098.75;5008775;28;20265;-54
2022/04/10 08:59:13;;;;;;;6.63;2.90;;;;;;;5.29;90.00;101095.38;5007454;28;20477;-54
2022/04/10 09:01:39;;;;;;;15.47;5.13;;;;;;;5.24;89.82;101103.09;5026032;28;20271;-55
2022/04/10 09:04:07;;;;;;;6.00;3.03;;;;;;;5.21;92.51;101103.88;5025548;28;20310;-54
2022/04/10 09:06:33;;;;;;;10.83;3.80;;;;;;;5.26;92.15;101114.41;5022207;28;20813;-56
2022/04/10 09:09:10;;;;;;;7.37;3.53;;;;;;;5.35;92.25;101113.78;5023731;28;20240;-56
2022/04/10 09:11:39;;;;;;;9.63;3.10;;;;;;;5.34;90.38;101109.44;5016173;28;20252;-54
2022/04/10 09:14:05;;;;;;;8.53;2.83;;;;;;;5.44;90.14;101108.78;5028535;28;20652;-54
2022/04/10 09:16:32;;;;;;;4.77;2.43;;;;;;;5.68;87.58;101104.19;5028069;28;20323;-53
2022/04/10 09:19:00;;;;;;;4.83;3.20;;;;;;;5.73;86.81;101110.44;5032265;28;20623;-52
2022/04/10 09:21:30;;;;;;;7.73;3.70;;;;;;;5.80;86.41;101115.78;5021329;28;20230;-52
2022/04/10 09:24:01;;;;;;;7.00;2.90;;;;;;;5.86;87.46;101118.53;5026784;28;20828;-56
2022/04/10 09:26:29;;;;;;;8.37;2.83;;;;;;;5.95;84.48;101111.84;5027501;28;20664;-53
2022/04/10 09:28:56;;;;;;;10.33;2.97;;;;;;;6.08;82.56;101117.38;5029458;28;20228;-53
2022/04/10 09:31:30;;;;;;;8.30;2.67;;;;;;;6.27;80.20;101118.66;5026537;28;20236;-52
2022/04/10 09:33:57;;;;;;;11.17;2.90;;;;;;;6.31;78.45;101110.06;5027979;28;20315;-53
2022/04/10 09:36:32;;;;;;;8.10;2.93;;;;;;;6.59;76.71;101114.16;5021147;28;20236;-52
2022/04/10 09:38:59;;;;;;;6.23;2.57;;;;;;;6.61;76.95;101110.72;5017826;28;20236;-53
2022/04/10 09:41:25;;;;;;;8.90;2.73;;;;;;;6.70;76.72;101110.03;5022391;28;20985;-53
2022/04/10 09:43:51;;;;;;;8.93;2.83;;;;;;;6.65;77.77;101128.19;5022763;28;20290;-52
2022/04/10 09:46:18;;;;;;;6.47;2.63;;;;;;;6.52;78.04;101120.97;5015640;28;20233;-52
2022/04/10 09:48:44;;;;;;;6.77;2.67;;;;;;;6.20;80.29;101121.13;5016056;28;20260;-53
2022/04/10 09:51:11;;;;;;;7.37;4.10;;;;;;;6.07;82.56;101126.91;5014914;28;20233;-53
2022/04/10 09:53:39;;;;;;;6.67;2.83;;;;;;;6.05;85.15;101128.59;5006721;28;20298;-53
2022/04/10 09:56:07;;;;;;;8.80;4.43;;;;;;;6.06;80.93;101127.75;5019357;28;20318;-53
2022/04/10 09:58:34;;;;;;;7.50;2.47;;;;;;;6.28;79.11;101123.91;5017252;28;21101;-52
2022/04/10 10:01:03;;;;;;;4.53;2.10;;;;;;;6.55;79.23;101118.41;5019923;28;20286;-53
2022/04/10 10:03:30;;;;;;;6.27;2.63;;;;;;;6.69;73.71;101111.75;5016354;28;20667;-53
2022/04/10 10:05:58;;;;;;;5.40;2.40;;;;;;;6.96;69.08;101123.63;5021589;28;20240;-52
2022/04/10 10:08:27;;;;;;;6.20;2.60;;;;;;;7.18;66.48;101107.50;5019091;28;20236;-52
2022/04/10 10:10:56;;;;;;;4.77;2.13;;;;;;;7.03;65.11;101111.56;5022242;28;20286;-52
2022/04/10 10:13:26;;;;;;;6.13;1.97;;;;;;;7.20;65.78;101109.28;5020373;28;20415;-53
2022/04/10 10:15:53;;;;;;;5.83;2.50;;;;;;;7.15;64.65;101107.44;5022141;28;20236;-53
2022/04/10 10:18:21;;;;;;;10.70;4.73;;;;;;;7.04;63.01;101101.16;5017028;28;20235;-53
2022/04/10 10:20:48;;;;;;;6.37;2.17;;;;;;;6.93;64.34;101115.72;5022170;28;20790;-54
2022/04/10 10:23:19;;;;;;;5.80;2.60;;;;;;;7.10;65.74;101106.50;5019213;28;20243;-54
2022/04/10 10:25:49;;;;;;;5.53;2.13;;;;;;;7.14;66.61;101112.66;5022757;28;20330;-54
2022/04/10 10:28:28;;;;;;;7.77;2.53;;;;;;;7.05;65.91;101112.47;5018390;28;20263;-53
2022/04/10 10:31:11;;;;;;;6.90;3.10;;;;;;;7.01;66.34;101124.59;5017521;28;20614;-52
2022/04/10 10:33:38;;;;;;;5.23;2.30;;;;;;;7.24;65.49;101116.34;5018099;28;20231;-54
2022/04/10 10:36:08;;;;;;;4.90;2.43;;;;;;;7.34;64.22;101115.66;5020295;28;20240;-53
2022/04/10 10:38:35;;;;;;;4.13;1.80;;;;;;;7.32;63.59;101109.50;5020472;28;20244;-52
2022/04/10 10:41:31;;;;;;;5.70;2.47;;;;;;;7.47;62.00;101095.84;5028438;28;20579;-53
2022/04/10 10:44:00;;;;;;;3.50;2.13;;;;;;;7.30;60.99;101104.28;5023467;28;20279;-52
2022/04/10 10:46:28;;;;;;;4.07;1.70;;;;;;;7.30;61.61;101103.34;5025928;28;20243;-53
2022/04/10 10:49:17;;;;;;;6.17;2.23;;;;;;;7.48;61.55;101108.06;5020387;28;20232;-58
2022/04/10 10:51:44;;;;;;;7.50;2.43;;;;;;;7.49;60.06;101097.63;5024721;28;20228;-53
2022/04/10 10:54:15;;;;;;;3.93;2.23;;;;;;;7.84;60.96;101100.81;5025800;28;20237;-54
2022/04/10 10:56:43;;;;;;;3.87;2.27;;;;;;;8.04;60.51;101106.38;5025872;28;20240;-52
2022/04/10 10:59:26;;;;;;;5.37;2.17;;;;;;;7.93;60.10;101096.59;5022903;28;20232;-54
2022/04/10 11:01:54;;;;;;;4.13;1.87;;;;;;;7.98;60.69;101095.81;5025132;28;20240;-52
2022/04/10 11:04:21;;;;;;;5.43;1.90;;;;;;;8.10;59.76;101098.59;5021056;28;20290;-52
2022/04/10 11:06:48;;;;;;;3.10;1.83;;;;;;;7.83;58.41;101099.06;5026794;28;20240;-53
2022/04/10 11:09:21;;;;;;;8.30;2.77;;;;;;;7.78;57.88;101107.69;5021244;28;20233;-53
2022/04/10 11:11:48;;;;;;;4.63;1.93;;;;;;;7.67;58.04;101098.78;5024375;28;20290;-52
2022/04/10 11:14:39;;;;;;;4.33;1.97;;;;;;;7.45;58.85;101105.41;5021765;28;20239;-52
2022/04/10 11:17:14;;;;;;;4.10;2.40;;;;;;;7.53;58.77;101109.88;5024083;28;20233;-53
2022/04/10 11:19:42;;;;;;;5.60;2.10;;;;;;;7.53;57.53;101111.63;5019622;28;20930;-52
2022/04/10 11:22:13;;;;;;;4.60;1.80;;;;;;;7.43;58.72;101115.78;5022534;28;20298;-55
2022/04/10 11:24:40;;;;;;;6.03;2.27;;;;;;;7.24;64.83;101118.94;5023941;28;20303;-53
2022/04/10 11:27:07;;;;;;;4.33;2.00;;;;;;;7.02;66.20;101131.59;5019867;28;20315;-54
2022/04/10 11:29:34;;;;;;;4.90;1.40;;;;;;;6.66;68.69;101132.56;5018067;28;20279;-53
2022/04/10 11:32:06;;;;;;;3.87;1.80;;;;;;;6.45;72.64;101139.94;5013493;28;20242;-53
2022/04/10 11:34:32;;;;;;;4.23;2.03;;;;;;;6.17;78.10;101138.41;5024880;28;20245;-54